METAR Data
IDs: Format: Raw Decoded Include TAF

Data at: 1542 UTC 03 Jun 2020

METAR for:KCVO (Corvallis Muni, OR, US)
Text:KCVO 031456Z AUTO 02008KT 10SM CLR 14/10 A3019 RMK AO2 SLP222 T01440100 51002
Temperature: 14.4°C ( 58°F)
Dewpoint: 10.0°C ( 50°F) [RH = 75%]
Pressure (altimeter):30.19 inches Hg (1022.4 mb) [Sea level pressure: 1022.2 mb]
Winds:from the NNE (20 degrees) at 9 MPH (8 knots; 4.1 m/s)
Visibility:10 or more sm (16+ km)
Ceiling:at least 12,000 feet AGL
Clouds:sky clear below 12,000 feet AGL
QC Flag:automated observation with no human augmentation
Text:KCVO 031356Z AUTO 28003KT 10SM CLR 11/08 A3018 RMK AO2 SLP221 T01110083
Temperature: 11.1°C ( 52°F)
Dewpoint: 8.3°C ( 47°F) [RH = 83%]
Pressure (altimeter):30.18 inches Hg (1022.1 mb) [Sea level pressure: 1022.1 mb]
Winds:from the W (280 degrees) at 3 MPH (3 knots; 1.5 m/s)
Visibility:10 or more sm (16+ km)
Ceiling:at least 12,000 feet AGL
Clouds:sky clear below 12,000 feet AGL
QC Flag:automated observation with no human augmentation
Text:KCVO 031256Z AUTO 29004KT 10SM CLR 09/07 A3019 RMK AO2 SLP223 T00890072
Temperature: 8.9°C ( 48°F)
Dewpoint: 7.2°C ( 45°F) [RH = 89%]
Pressure (altimeter):30.19 inches Hg (1022.4 mb) [Sea level pressure: 1022.3 mb]
Winds:from the WNW (290 degrees) at 5 MPH (4 knots; 2.1 m/s)
Visibility:10 or more sm (16+ km)
Ceiling:at least 12,000 feet AGL
Clouds:sky clear below 12,000 feet AGL
QC Flag:automated observation with no human augmentation
Text:KCVO 031156Z AUTO 00000KT 10SM CLR 10/07 A3018 RMK AO2 SLP221 T01000072 10144 20094 55002
Temperature: 10.0°C ( 50°F)
Dewpoint: 7.2°C ( 45°F) [RH = 83%]
Pressure (altimeter):30.18 inches Hg (1022.1 mb) [Sea level pressure: 1022.1 mb]
Winds:calm
Visibility:10 or more sm (16+ km)
Ceiling:at least 12,000 feet AGL
Clouds:sky clear below 12,000 feet AGL
QC Flag:automated observation with no human augmentation
Text:KCVO 031056Z AUTO 30003KT 10SM CLR 10/07 A3018 RMK AO2 SLP219 T01000072
Temperature: 10.0°C ( 50°F)
Dewpoint: 7.2°C ( 45°F) [RH = 83%]
Pressure (altimeter):30.18 inches Hg (1022.1 mb) [Sea level pressure: 1021.9 mb]
Winds:from the WNW (300 degrees) at 3 MPH (3 knots; 1.5 m/s)
Visibility:10 or more sm (16+ km)
Ceiling:at least 12,000 feet AGL
Clouds:sky clear below 12,000 feet AGL
QC Flag:automated observation with no human augmentation
Text:KCVO 030956Z AUTO 29004KT 10SM CLR 09/07 A3018 RMK AO2 SLP219 T00940067
Temperature: 9.4°C ( 49°F)
Dewpoint: 6.7°C ( 44°F) [RH = 83%]
Pressure (altimeter):30.18 inches Hg (1022.1 mb) [Sea level pressure: 1021.9 mb]
Winds:from the WNW (290 degrees) at 5 MPH (4 knots; 2.1 m/s)
Visibility:10 or more sm (16+ km)
Ceiling:at least 12,000 feet AGL
Clouds:sky clear below 12,000 feet AGL
QC Flag:automated observation with no human augmentation
Text:KCVO 030856Z AUTO 29007KT 10SM CLR 11/07 A3019 RMK AO2 SLP222 T01110067 58006
Temperature: 11.1°C ( 52°F)
Dewpoint: 6.7°C ( 44°F) [RH = 74%]
Pressure (altimeter):30.19 inches Hg (1022.4 mb) [Sea level pressure: 1022.2 mb]
Winds:from the WNW (290 degrees) at 8 MPH (7 knots; 3.6 m/s)
Visibility:10 or more sm (16+ km)
Ceiling:at least 12,000 feet AGL
Clouds:sky clear below 12,000 feet AGL
QC Flag:automated observation with no human augmentation
Text:KCVO 030756Z AUTO 29006KT 10SM CLR 12/06 A3020 RMK AO2 SLP225 T01170056 402610072
Temperature: 11.7°C ( 53°F)
Dewpoint: 5.6°C ( 42°F) [RH = 66%]
Pressure (altimeter):30.20 inches Hg (1022.8 mb) [Sea level pressure: 1022.5 mb]
Winds:from the WNW (290 degrees) at 7 MPH (6 knots; 3.1 m/s)
Visibility:10 or more sm (16+ km)
Ceiling:at least 12,000 feet AGL
Clouds:sky clear below 12,000 feet AGL
QC Flag:automated observation with no human augmentation
Text:KCVO 030656Z AUTO 29006KT 10SM CLR 12/06 A3020 RMK AO2 SLP228 T01170056
Temperature: 11.7°C ( 53°F)
Dewpoint: 5.6°C ( 42°F) [RH = 66%]
Pressure (altimeter):30.20 inches Hg (1022.8 mb) [Sea level pressure: 1022.8 mb]
Winds:from the WNW (290 degrees) at 7 MPH (6 knots; 3.1 m/s)
Visibility:10 or more sm (16+ km)
Ceiling:at least 12,000 feet AGL
Clouds:sky clear below 12,000 feet AGL
QC Flag:automated observation with no human augmentation
Text:KCVO 030556Z AUTO 32007KT 10SM CLR 14/03 A3020 RMK AO2 SLP228 T01440033 10239 20144 51015
Temperature: 14.4°C ( 58°F)
Dewpoint: 3.3°C ( 38°F) [RH = 47%]
Pressure (altimeter):30.20 inches Hg (1022.8 mb) [Sea level pressure: 1022.8 mb]
Winds:from the NW (320 degrees) at 8 MPH (7 knots; 3.6 m/s)
Visibility:10 or more sm (16+ km)
Ceiling:at least 12,000 feet AGL
Clouds:sky clear below 12,000 feet AGL
QC Flag:automated observation with no human augmentation
Text:KCVO 030456Z AUTO 31010KT 10SM CLR 16/02 A3020 RMK AO2 SLP226 T01560022
Temperature: 15.6°C ( 60°F)
Dewpoint: 2.2°C ( 36°F) [RH = 40%]
Pressure (altimeter):30.20 inches Hg (1022.8 mb) [Sea level pressure: 1022.6 mb]
Winds:from the NW (310 degrees) at 12 MPH (10 knots; 5.1 m/s)
Visibility:10 or more sm (16+ km)
Ceiling:at least 12,000 feet AGL
Clouds:sky clear below 12,000 feet AGL
QC Flag:automated observation with no human augmentation
Text:KCVO 030356Z AUTO 31009KT 10SM CLR 17/01 A3017 RMK AO2 SLP219 T01720006
Temperature: 17.2°C ( 63°F)
Dewpoint: 0.6°C ( 33°F) [RH = 33%]
Pressure (altimeter):30.17 inches Hg (1021.8 mb) [Sea level pressure: 1021.9 mb]
Winds:from the NW (310 degrees) at 10 MPH (9 knots; 4.6 m/s)
Visibility:10 or more sm (16+ km)
Ceiling:at least 12,000 feet AGL
Clouds:sky clear below 12,000 feet AGL
QC Flag:automated observation with no human augmentation
Text:KCVO 030256Z AUTO 32009KT 10SM CLR 20/M01 A3016 RMK AO2 SLP214 T02001006 53004
Temperature: 20.0°C ( 68°F)
Dewpoint: -0.6°C ( 31°F) [RH = 25%]
Pressure (altimeter):30.16 inches Hg (1021.4 mb) [Sea level pressure: 1021.4 mb]
Winds:from the NW (320 degrees) at 10 MPH (9 knots; 4.6 m/s)
Visibility:10 or more sm (16+ km)
Ceiling:at least 12,000 feet AGL
Clouds:sky clear below 12,000 feet AGL
QC Flag:automated observation with no human augmentation
Text:KCVO 030156Z AUTO 31007KT 10SM CLR 22/M02 A3015 RMK AO2 SLP212 T02171022
Temperature: 21.7°C ( 71°F)
Dewpoint: -2.2°C ( 28°F) [RH = 20%]
Pressure (altimeter):30.15 inches Hg (1021.1 mb) [Sea level pressure: 1021.2 mb]
Winds:from the NW (310 degrees) at 8 MPH (7 knots; 3.6 m/s)
Visibility:10 or more sm (16+ km)
Ceiling:at least 12,000 feet AGL
Clouds:sky clear below 12,000 feet AGL
QC Flag:automated observation with no human augmentation
Text:KCVO 030056Z AUTO 32014G22KT 10SM CLR 23/02 A3015 RMK AO2 SLP211 T02330017
Temperature: 23.3°C ( 74°F)
Dewpoint: 1.7°C ( 35°F) [RH = 24%]
Pressure (altimeter):30.15 inches Hg (1021.1 mb) [Sea level pressure: 1021.1 mb]
Winds:from the NW (320 degrees) at 16 MPH (14 knots; 7.2 m/s) gusting to 25 MPH (22 knots; 11.3 m/s)
Visibility:10 or more sm (16+ km)
Ceiling:at least 12,000 feet AGL
Clouds:sky clear below 12,000 feet AGL
QC Flag:automated observation with no human augmentation
Text:KCVO 022356Z AUTO 30012KT 10SM CLR 24/06 A3015 RMK AO2 SLP209 T02390056 10261 20183 56008
Temperature: 23.9°C ( 75°F)
Dewpoint: 5.6°C ( 42°F) [RH = 31%]
Pressure (altimeter):30.15 inches Hg (1021.1 mb) [Sea level pressure: 1020.9 mb]
Winds:from the WNW (300 degrees) at 14 MPH (12 knots; 6.2 m/s)
Visibility:10 or more sm (16+ km)
Ceiling:at least 12,000 feet AGL
Clouds:sky clear below 12,000 feet AGL
QC Flag:automated observation with no human augmentation
Text:KCVO 022256Z AUTO 33013G16KT 10SM CLR 25/09 A3016 RMK AO2 SLP212 T02500094
Temperature: 25.0°C ( 77°F)
Dewpoint: 9.4°C ( 49°F) [RH = 37%]
Pressure (altimeter):30.16 inches Hg (1021.4 mb) [Sea level pressure: 1021.2 mb]
Winds:from the NNW (330 degrees) at 15 MPH (13 knots; 6.7 m/s) gusting to 18 MPH (16 knots; 8.2 m/s)
Visibility:10 or more sm (16+ km)
Ceiling:at least 12,000 feet AGL
Clouds:sky clear below 12,000 feet AGL
QC Flag:automated observation with no human augmentation
Text:KCVO 022156Z AUTO VRB04KT 10SM CLR 24/12 A3016 RMK AO2 SLP214 T02440117
Temperature: 24.4°C ( 76°F)
Dewpoint: 11.7°C ( 53°F) [RH = 45%]
Pressure (altimeter):30.16 inches Hg (1021.4 mb) [Sea level pressure: 1021.4 mb]
Winds:variable direction winds at 5 MPH (4 knots; 2.1 m/s)
Visibility:10 or more sm (16+ km)
Ceiling:at least 12,000 feet AGL
Clouds:sky clear below 12,000 feet AGL
QC Flag:automated observation with no human augmentation
Text:KCVO 022056Z AUTO 00000KT 10SM CLR 23/10 A3017 RMK AO2 SLP218 T02280100 56010
Temperature: 22.8°C ( 73°F)
Dewpoint: 10.0°C ( 50°F) [RH = 44%]
Pressure (altimeter):30.17 inches Hg (1021.8 mb) [Sea level pressure: 1021.8 mb]
Winds:calm
Visibility:10 or more sm (16+ km)
Ceiling:at least 12,000 feet AGL
Clouds:sky clear below 12,000 feet AGL
QC Flag:automated observation with no human augmentation
Text:KCVO 021956Z AUTO 00000KT 10SM CLR 22/10 A3018 RMK AO2 SLP221 T02170100
Temperature: 21.7°C ( 71°F)
Dewpoint: 10.0°C ( 50°F) [RH = 47%]
Pressure (altimeter):30.18 inches Hg (1022.1 mb) [Sea level pressure: 1022.1 mb]
Winds:calm
Visibility:10 or more sm (16+ km)
Ceiling:at least 12,000 feet AGL
Clouds:sky clear below 12,000 feet AGL
QC Flag:automated observation with no human augmentation
Text:KCVO 021856Z AUTO 08003KT 10SM CLR 20/09 A3019 RMK AO2 SLP223 T02000094
Temperature: 20.0°C ( 68°F)
Dewpoint: 9.4°C ( 49°F) [RH = 50%]
Pressure (altimeter):30.19 inches Hg (1022.4 mb) [Sea level pressure: 1022.3 mb]
Winds:from the E (80 degrees) at 3 MPH (3 knots; 1.5 m/s)
Visibility:10 or more sm (16+ km)
Ceiling:at least 12,000 feet AGL
Clouds:sky clear below 12,000 feet AGL
QC Flag:automated observation with no human augmentation
Text:KCVO 021756Z AUTO 00000KT 10SM CLR 18/10 A3020 RMK AO2 SLP228 T01830100 10183 20072 58004
Temperature: 18.3°C ( 65°F)
Dewpoint: 10.0°C ( 50°F) [RH = 58%]
Pressure (altimeter):30.20 inches Hg (1022.8 mb) [Sea level pressure: 1022.8 mb]
Winds:calm
Visibility:10 or more sm (16+ km)
Ceiling:at least 12,000 feet AGL
Clouds:sky clear below 12,000 feet AGL
QC Flag:automated observation with no human augmentation
Text:KCVO 021656Z AUTO 00000KT 10SM CLR 17/10 A3021 RMK AO2 SLP232 T01670100
Temperature: 16.7°C ( 62°F)
Dewpoint: 10.0°C ( 50°F) [RH = 65%]
Pressure (altimeter):30.21 inches Hg (1023.1 mb) [Sea level pressure: 1023.2 mb]
Winds:calm
Visibility:10 or more sm (16+ km)
Ceiling:at least 12,000 feet AGL
Clouds:sky clear below 12,000 feet AGL
QC Flag:automated observation with no human augmentation
Text:KCVO 021556Z AUTO 00000KT 10SM CLR 14/09 A3022 RMK AO2 SLP235 T01390089
Temperature: 13.9°C ( 57°F)
Dewpoint: 8.9°C ( 48°F) [RH = 72%]
Pressure (altimeter):30.22 inches Hg (1023.5 mb) [Sea level pressure: 1023.5 mb]
Winds:calm
Visibility:10 or more sm (16+ km)
Ceiling:at least 12,000 feet AGL
Clouds:sky clear below 12,000 feet AGL
QC Flag:automated observation with no human augmentation